Santa Rosa, Texas
Current Conditions -  °F | °C
As of 10:35 AM on Friday 28 Nov 2014 (Local Time) from KT65 Reporting Station
Clear Clear  
Wind Chill: 71°   Ceiling: Unl
Heat Index: 71°   Visibility: 7mi
Dew Point: 57°   Wind: 6mph
Humidity: 61%   Direction: 150°SSE
Pressure: 30.31"   Gusts: NA
Location:  26.26°N, 97.82°W
Report Text: KT65 281635Z AUTO 15005KT 7SM CLR 22/14 A3031 RMK AO2 T02150138
Loading
Personal Weather Stations






























Interactive Weather Map New forecast layout! Learn more

10-Day Weather Forecast

Advertisements
Track Severe Weather on mobile